Last 24 Hours

AM-Scott Btm 7075'

15 Minute Data | America/Los_Angeles
as of 2/24/24 1:37 AM PST
Date & Time Temp (°F) RH (%) Dew Pt (°F) Wet Bulb (°F) Daily Min Temp (°F) Daily Max Temp (°F)
2/24/24 - 0130 27.6 82 22.9 25.7 26.3 28.4
2/24/24 - 0115 27.5 81 22.5 25.5 26.3 28.4
2/24/24 - 0100 27.2 81 22.2 25.3 26.3 28.4
2/24/24 - 0045 26.9 82 22.1 25.0 26.4 28.4
2/24/24 - 0030 27.1 82 22.3 25.2 26.4 28.4
2/24/24 - 0015 27.7 83 23.3 25.9 27.1 28.4
2/24/24 - 0000 28.0 83 23.4 26.2 22.5 38.9
2/23/24 - 2345 27.2 83 22.8 25.5 22.5 38.9
2/23/24 - 2330 27.2 83 22.8 25.5 22.5 38.9
2/23/24 - 2315 26.9 83 22.6 25.2 22.5 38.9
2/23/24 - 2300 27.1 83 22.7 25.4 22.5 38.9
2/23/24 - 2245 26.7 84 22.5 25.1 22.5 38.9
2/23/24 - 2230 27.2 84 22.9 25.5 22.5 38.9
2/23/24 - 2215 26.8 85 22.9 25.2 22.5 38.9
2/23/24 - 2200 26.9 86 23.1 25.4 22.5 38.9
2/23/24 - 2145 26.8 86 23.2 25.4 22.5 38.9
2/23/24 - 2130 27.6 86 23.9 26.1 22.5 38.9
2/23/24 - 2115 27.3 86 23.7 25.8 22.5 38.9
2/23/24 - 2100 27.2 86 23.6 25.8 22.5 38.9
2/23/24 - 2045 27.1 86 23.5 25.7 22.5 38.9
2/23/24 - 2030 27.9 86 24.1 26.4 22.5 38.9
2/23/24 - 2015 27.7 86 24.0 26.2 22.5 38.9
2/23/24 - 2000 27.6 86 24.0 26.2 22.5 38.9
2/23/24 - 1945 27.8 86 24.1 26.3 22.5 38.9
2/23/24 - 1930 28.1 86 24.6 26.7 22.5 38.9
2/23/24 - 1915 28.8 85 25.0 27.3 22.5 38.9
2/23/24 - 1900 29.3 85 25.5 27.8 22.5 38.9
2/23/24 - 1845 30.0 85 26.0 28.3 22.5 38.9
2/23/24 - 1830 30.5 85 26.4 28.8 22.5 38.9
2/23/24 - 1815 30.8 85 26.8 29.1 22.5 38.9
2/23/24 - 1800 31.5 84 27.3 29.7 22.5 38.9
2/23/24 - 1745 32.0 84 27.8 30.2 22.5 38.9
2/23/24 - 1730 32.7 82 27.7 30.5 22.5 38.9
2/23/24 - 1715 33.9 79 28.1 31.4 22.5 38.9
2/23/24 - 1700 36.2 72 28.1 32.6 22.5 38.9
2/23/24 - 1645 36.6 69 27.6 32.6 22.5 38.9
2/23/24 - 1630 37.1 67 27.0 32.6 22.5 38.9
2/23/24 - 1615 37.5 63 26.2 32.6 22.5 38.9
2/23/24 - 1600 38.2 62 26.5 33.0 22.5 38.9
2/23/24 - 1545 38.2 62 26.4 33.0 22.5 38.9
2/23/24 - 1530 37.6 62 25.6 32.4 22.5 38.9
2/23/24 - 1515 37.6 64 26.5 32.7 22.5 38.9
2/23/24 - 1500 38.0 64 26.9 33.1 22.5 38.9
2/23/24 - 1445 37.8 65 27.1 33.0 22.5 38.9
2/23/24 - 1430 38.1 65 27.3 33.3 22.5 38.9
2/23/24 - 1415 38.5 65 27.9 33.7 22.5 38.9
2/23/24 - 1400 38.6 64 27.6 33.7 22.5 38.9
2/23/24 - 1345 38.1 62 26.3 32.9 22.5 38.7
2/23/24 - 1330 38.5 64 27.4 33.5 22.5 38.7
2/23/24 - 1315 37.9 65 27.4 33.2 22.5 38.4
2/23/24 - 1300 37.6 66 27.3 33.0 22.5 37.9
2/23/24 - 1245 37.6 67 27.4 33.0 22.5 37.8
2/23/24 - 1230 37.4 67 27.3 32.9 22.5 37.7
2/23/24 - 1215 37.4 66 27.2 32.9 22.5 37.7
2/23/24 - 1200 36.3 68 26.9 32.2 22.5 37.7
2/23/24 - 1145 35.9 67 26.2 31.7 22.5 37.7
2/23/24 - 1130 36.5 67 26.4 32.1 22.5 37.7
2/23/24 - 1115 36.6 66 26.3 32.1 22.5 37.7
2/23/24 - 1100 36.4 67 26.5 32.1 22.5 37.7
2/23/24 - 1045 36.5 67 26.4 32.1 22.5 37.7
2/23/24 - 1030 37.2 66 26.9 32.6 22.5 37.7
2/23/24 - 1015 35.2 69 25.9 31.2 22.5 36.7
2/23/24 - 1000 34.0 70 25.3 30.3 22.5 34.8
2/23/24 - 0945 33.1 70 24.6 29.6 22.5 34.5
2/23/24 - 0930 32.1 71 24.0 28.8 22.5 32.7
2/23/24 - 0915 31.1 73 23.4 27.9 22.5 31.7
2/23/24 - 0900 29.3 78 23.2 26.8 22.5 30.6
2/23/24 - 0845 27.8 80 22.5 25.7 22.5 28.3
2/23/24 - 0830 26.3 81 21.3 24.4 22.5 26.7
2/23/24 - 0815 25.4 82 20.7 23.6 22.5 26.6
2/23/24 - 0800 25.9 81 20.8 24.0 22.5 26.6
2/23/24 - 0745 25.2 83 20.9 23.6 22.5 25.8
2/23/24 - 0730 25.4 83 20.8 23.7 22.5 25.7
2/23/24 - 0715 25.2 84 21.0 23.6 22.5 25.6
2/23/24 - 0700 24.4 84 20.3 22.9 22.5 25.6
2/23/24 - 0645 24.2 84 20.0 22.6 22.5 25.6
2/23/24 - 0630 24.4 83 20.1 22.8 22.5 25.6
2/23/24 - 0615 24.7 82 20.1 23.0 22.5 25.6
2/23/24 - 0600 23.8 84 19.6 22.3 22.5 25.6
2/23/24 - 0545 23.3 83 18.8 21.7 22.5 25.6
2/23/24 - 0530 23.0 83 18.5 21.4 22.5 25.6
2/23/24 - 0515 22.9 83 18.5 21.4 22.5 25.6
2/23/24 - 0500 23.0 83 18.6 21.5 22.5 25.6
2/23/24 - 0445 22.8 83 18.4 21.2 22.5 25.6
2/23/24 - 0430 23.7 82 18.9 22.0 22.6 25.6
2/23/24 - 0415 23.6 82 19.0 21.9 22.6 25.6
2/23/24 - 0400 23.0 83 18.5 21.4 22.6 25.6
2/23/24 - 0345 24.4 81 19.4 22.6 22.6 25.6
2/23/24 - 0330 24.1 82 19.3 22.3 22.6 25.6
2/23/24 - 0315 24.1 82 19.3 22.4 22.6 25.6
2/23/24 - 0300 24.6 81 19.5 22.7 22.6 25.6
2/23/24 - 0245 24.6 81 19.4 22.7 22.6 25.6
2/23/24 - 0230 24.3 80 19.2 22.5 22.6 25.5
2/23/24 - 0215 23.3 82 18.5 21.6 22.6 25.5
2/23/24 - 0200 23.5 81 18.5 21.7 22.8 25.5
2/23/24 - 0145 24.2 82 19.3 22.4 23.7 25.5
2/23/24 - 0130 24.3 81 19.3 22.5 23.8 25.5
Max 38.6 86 28.1 33.7 27.1 38.9
Avg 29.9 78 23.5 27.2 - -
Min 22.8 62 18.4 21.2 22.5 25.5